Cisne Branco — PWCB — position and weather

sailwx.info

Track history (hours):
 
Tides and Currents Weather Stations Pressure Air Temp Water Temp Dewpoint Dewpoint Depression Visibility Wind Speed Wind Dir Waves Ship Positions

Cisne Branco (Brazil)

Last reported at 2016-Dec-21 11:06 UTC. Time now 2017-Jan-16 11:02 UTC.
Position S 22°52' W 043°08'.
Warning: this ship's position is 25 days out of date.

Length 78 m; draft 4.8 m.

Type: Sailing vessel. MMSI: 710428000.

Date/timePositionNaut miles runAvg speedWind from/ knotsBaromVisibWave heightAir tempDewpointWater temp
2016-Dec-21 11:06S 22°52' W 043°08'0 0.6
2016-Dec-21 10:30S 22°52' W 043°09'0 0.0
2016-Dec-21 08:24S 22°52' W 043°09'0 0.1
2016-Dec-21 07:24S 22°52' W 043°09'0 0.0
2016-Dec-21 06:30S 22°52' W 043°09'0 0.0
2016-Dec-21 05:30S 22°52' W 043°09'0 0.0
2016-Dec-21 04:30S 22°52' W 043°09'0 0.0
2016-Dec-21 03:30S 22°52' W 043°09'0 0.0
2016-Dec-21 02:30S 22°52' W 043°09'0 0.0
2016-Dec-21 01:30S 22°52' W 043°09'0 0.0
2016-Dec-21 00:30S 22°52' W 043°09'0 0.0
2016-Dec-20 23:30S 22°52' W 043°09'0 0.0
2016-Dec-20 22:30S 22°52' W 043°09'0 0.0
2016-Dec-20 19:33S 22°52' W 043°09'3 3.1
2016-Dec-20 18:33S 22°55' W 043°09'10 0.3
2016-Dec-19 13:33S 23°04' W 043°04'6 5.6
2016-Dec-19 12:33S 22°59' W 043°07'7 6.7
2016-Dec-19 11:33S 22°53' W 043°09'1 0.0
2016-Dec-17 15:23S 22°52' W 043°08'2 2.5
2016-Dec-17 14:33S 22°53' W 043°10'1 0.1
2016-Dec-17 07:12S 22°53' W 043°10'0 0.0
2016-Dec-17 06:18S 22°53' W 043°10'0 0.0
2016-Dec-17 05:30S 22°53' W 043°10'0 0.0
2016-Dec-17 04:18S 22°53' W 043°10'0 0.0
2016-Dec-17 03:30S 22°53' W 043°10'0 0.0
2016-Dec-17 02:30S 22°53' W 043°10'0 0.0
2016-Dec-17 01:24S 22°53' W 043°10'0 0.0
2016-Dec-17 00:12S 22°53' W 043°10'0 0.0
2016-Dec-16 23:18S 22°53' W 043°10'0 0.0
2016-Dec-16 22:30S 22°53' W 043°10'0 0.0
2016-Dec-16 21:24S 22°53' W 043°10'0 0.0
2016-Dec-16 20:30S 22°53' W 043°10'0 0.0
2016-Dec-16 19:30S 22°53' W 043°10'0 0.0
2016-Dec-16 18:24S 22°53' W 043°10'0 0.0
2016-Dec-16 17:30S 22°53' W 043°10'0 0.0
2016-Dec-16 16:24S 22°53' W 043°10'0 0.0
2016-Dec-16 15:30S 22°53' W 043°10'0 0.0
2016-Dec-16 14:30S 22°53' W 043°10'0 0.0
2016-Dec-16 13:30S 22°53' W 043°10'0 0.0
2016-Dec-16 12:33S 22°53' W 043°10'1 1.4
2016-Dec-16 11:33S 22°54' W 043°09'2 1.5
2016-Dec-16 10:27S 22°55' W 043°09'0 0.0
2016-Dec-16 09:33S 22°55' W 043°09'0 0.0
2016-Dec-16 08:33S 22°55' W 043°09'0 0.0
2016-Dec-16 07:33S 22°55' W 043°09'0 0.0
2016-Dec-16 06:33S 22°55' W 043°09'0 0.1
2016-Dec-16 05:33S 22°55' W 043°09'0 0.0
2016-Dec-16 04:33S 22°55' W 043°09'0 0.0
2016-Dec-16 03:33S 22°55' W 043°09'0 0.1
2016-Dec-16 02:33S 22°55' W 043°09'0 0.0
2016-Dec-16 01:33S 22°55' W 043°09'0 0.0
2016-Dec-16 00:27S 22°55' W 043°09'0 0.0
2016-Dec-15 23:33S 22°55' W 043°09'0 0.0
2016-Dec-15 22:33S 22°55' W 043°09'0 0.0
2016-Dec-15 21:33S 22°55' W 043°09'0 0.0
2016-Dec-15 20:33S 22°55' W 043°09'0 0.0
2016-Dec-15 19:33S 22°55' W 043°09'0 0.0
2016-Dec-15 18:33S 22°55' W 043°09'0 0.0
2016-Dec-15 17:33S 22°55' W 043°09'0 0.0
2016-Dec-15 16:33S 22°55' W 043°09'0 0.0
2016-Dec-15 15:33S 22°55' W 043°09'0 0.0
2016-Dec-15 14:33S 22°55' W 043°09'0 0.1
2016-Dec-15 13:33S 22°55' W 043°09'3 2.9
2016-Dec-15 12:30S 22°58' W 043°10'4 4.2
2016-Dec-15 11:31S 22°54' W 043°09'  
2016-Dec-12 17:09S 22°54' W 043°11'2 3.8
2016-Dec-12 16:34S 22°55' W 043°09'5 4.8
2016-Dec-12 15:25S 22°60' W 043°10'4 4.2
2016-Dec-12 14:34S 22°57' W 043°09'3 3.0
2016-Dec-12 13:33S 22°54' W 043°10'0 0.1
2016-Dec-12 11:31S 22°54' W 043°10'1 0.8
2016-Dec-12 10:34S 22°54' W 043°10'  
Track history (hours):
 
Tides and Currents Weather Stations Pressure Air Temp Water Temp Dewpoint Dewpoint Depression Visibility Wind Speed Wind Dir Waves Ship Positions

Cisne Branco (Brazil)

Last reported at 2016-Dec-21 11:06 UTC. Time now 2017-Jan-16 11:02 UTC.
Position S 22°52' W 043°08'.
Warning: this ship's position is 25 days out of date.

Length 78 m; draft 4.8 m.

Type: Sailing vessel. MMSI: 710428000.

Date/timePositionNaut miles runAvg speedWind from/ knotsBaromVisibWave heightAir tempDewpointWater temp
2016-Dec-21 11:06S 22°52' W 043°08'0 0.6
2016-Dec-21 10:30S 22°52' W 043°09'0 0.0
2016-Dec-21 08:24S 22°52' W 043°09'0 0.1
2016-Dec-21 07:24S 22°52' W 043°09'0 0.0
2016-Dec-21 06:30S 22°52' W 043°09'0 0.0
2016-Dec-21 05:30S 22°52' W 043°09'0 0.0
2016-Dec-21 04:30S 22°52' W 043°09'0 0.0
2016-Dec-21 03:30S 22°52' W 043°09'0 0.0
2016-Dec-21 02:30S 22°52' W 043°09'0 0.0
2016-Dec-21 01:30S 22°52' W 043°09'0 0.0
2016-Dec-21 00:30S 22°52' W 043°09'0 0.0
2016-Dec-20 23:30S 22°52' W 043°09'0 0.0
2016-Dec-20 22:30S 22°52' W 043°09'0 0.0
2016-Dec-20 19:33S 22°52' W 043°09'3 3.1
2016-Dec-20 18:33S 22°55' W 043°09'10 0.3
2016-Dec-19 13:33S 23°04' W 043°04'6 5.6
2016-Dec-19 12:33S 22°59' W 043°07'7 6.7
2016-Dec-19 11:33S 22°53' W 043°09'1 0.0
2016-Dec-17 15:23S 22°52' W 043°08'2 2.5
2016-Dec-17 14:33S 22°53' W 043°10'1 0.1
2016-Dec-17 07:12S 22°53' W 043°10'0 0.0
2016-Dec-17 06:18S 22°53' W 043°10'0 0.0
2016-Dec-17 05:30S 22°53' W 043°10'0 0.0
2016-Dec-17 04:18S 22°53' W 043°10'0 0.0
2016-Dec-17 03:30S 22°53' W 043°10'0 0.0
2016-Dec-17 02:30S 22°53' W 043°10'0 0.0
2016-Dec-17 01:24S 22°53' W 043°10'0 0.0
2016-Dec-17 00:12S 22°53' W 043°10'0 0.0
2016-Dec-16 23:18S 22°53' W 043°10'0 0.0
2016-Dec-16 22:30S 22°53' W 043°10'0 0.0
2016-Dec-16 21:24S 22°53' W 043°10'0 0.0
2016-Dec-16 20:30S 22°53' W 043°10'0 0.0
2016-Dec-16 19:30S 22°53' W 043°10'0 0.0
2016-Dec-16 18:24S 22°53' W 043°10'0 0.0
2016-Dec-16 17:30S 22°53' W 043°10'0 0.0
2016-Dec-16 16:24S 22°53' W 043°10'0 0.0
2016-Dec-16 15:30S 22°53' W 043°10'0 0.0
2016-Dec-16 14:30S 22°53' W 043°10'0 0.0
2016-Dec-16 13:30S 22°53' W 043°10'0 0.0
2016-Dec-16 12:33S 22°53' W 043°10'1 1.4
2016-Dec-16 11:33S 22°54' W 043°09'2 1.5
2016-Dec-16 10:27S 22°55' W 043°09'0 0.0
2016-Dec-16 09:33S 22°55' W 043°09'0 0.0
2016-Dec-16 08:33S 22°55' W 043°09'0 0.0
2016-Dec-16 07:33S 22°55' W 043°09'0 0.0
2016-Dec-16 06:33S 22°55' W 043°09'0 0.1
2016-Dec-16 05:33S 22°55' W 043°09'0 0.0
2016-Dec-16 04:33S 22°55' W 043°09'0 0.0
2016-Dec-16 03:33S 22°55' W 043°09'0 0.1
2016-Dec-16 02:33S 22°55' W 043°09'0 0.0
2016-Dec-16 01:33S 22°55' W 043°09'0 0.0
2016-Dec-16 00:27S 22°55' W 043°09'0 0.0
2016-Dec-15 23:33S 22°55' W 043°09'0 0.0
2016-Dec-15 22:33S 22°55' W 043°09'0 0.0
2016-Dec-15 21:33S 22°55' W 043°09'0 0.0
2016-Dec-15 20:33S 22°55' W 043°09'0 0.0
2016-Dec-15 19:33S 22°55' W 043°09'0 0.0
2016-Dec-15 18:33S 22°55' W 043°09'0 0.0
2016-Dec-15 17:33S 22°55' W 043°09'0 0.0
2016-Dec-15 16:33S 22°55' W 043°09'0 0.0
2016-Dec-15 15:33S 22°55' W 043°09'0 0.0
2016-Dec-15 14:33S 22°55' W 043°09'0 0.1
2016-Dec-15 13:33S 22°55' W 043°09'3 2.9
2016-Dec-15 12:30S 22°58' W 043°10'4 4.2
2016-Dec-15 11:31S 22°54' W 043°09'  
2016-Dec-12 17:09S 22°54' W 043°11'2 3.8
2016-Dec-12 16:34S 22°55' W 043°09'5 4.8
2016-Dec-12 15:25S 22°60' W 043°10'4 4.2
2016-Dec-12 14:34S 22°57' W 043°09'3 3.0
2016-Dec-12 13:33S 22°54' W 043°10'0 0.1
2016-Dec-12 11:31S 22°54' W 043°10'1 0.8
2016-Dec-12 10:34S 22°54' W 043°10'  

Dump ship's entire track history